Time;durP1;ratioP1;P1;durP2;ratioP2;P2;SDS_P1;SDS_P2;PMS_P1;PMS_P2;Temp;Humidity;BMP_temperature;BMP_pressure;BME280_temperature;BME280_humidity;BME280_pressure;Samples;Min_cycle;Max_cycle;Signal;HPM_P1;HPM_P2
2022/04/16 00:00:15;;;;;;;17.90;15.73;;;10.40;31.30;;;;;;5067366;28;20192;-80
2022/04/16 00:02:41;;;;;;;17.27;15.47;;;10.40;32.80;;;;;;5071229;28;20193;-83
2022/04/16 00:05:07;;;;;;;16.20;14.07;;;10.30;33.30;;;;;;5074174;28;20235;-83
2022/04/16 00:07:33;;;;;;;17.17;15.27;;;10.30;31.90;;;;;;5069752;28;20165;-82
2022/04/16 00:10:07;;;;;;;17.23;15.20;;;10.20;34.80;;;;;;5068474;28;20214;-81
2022/04/16 00:12:35;;;;;;;18.13;15.87;;;10.20;37.10;;;;;;5062550;28;20275;-81
2022/04/16 00:15:06;;;;;;;16.83;15.00;;;10.20;38.30;;;;;;5054450;28;20615;-81
2022/04/16 00:17:32;;;;;;;18.93;16.57;;;10.20;37.80;;;;;;5070895;28;20179;-81
2022/04/16 00:19:58;;;;;;;17.70;15.23;;;10.20;38.00;;;;;;5059435;28;20568;-81
2022/04/16 00:22:25;;;;;;;18.30;15.87;;;10.20;38.90;;;;;;5054176;28;20165;-82
2022/04/16 00:24:51;;;;;;;18.23;15.30;;;10.20;38.30;;;;;;5053769;28;20184;-82
2022/04/16 00:27:17;;;;;;;19.23;16.77;;;10.20;38.20;;;;;;5053569;28;20256;-82
2022/04/16 00:29:43;;;;;;;20.17;16.60;;;10.20;38.40;;;;;;5053724;28;20265;-82
2022/04/16 00:32:09;;;;;;;19.03;16.20;;;10.20;37.40;;;;;;5053650;28;20662;-81
2022/04/16 00:34:35;;;;;;;17.47;15.13;;;10.10;37.60;;;;;;5052324;28;20643;-82
2022/04/16 00:37:01;;;;;;;18.80;16.37;;;10.00;38.80;;;;;;5053698;28;20188;-81
2022/04/16 00:39:27;;;;;;;19.83;17.57;;;10.00;42.50;;;;;;5053594;28;20169;-82
2022/04/16 00:41:53;;;;;;;18.43;15.30;;;10.00;41.50;;;;;;5053698;28;20176;-82
2022/04/16 00:44:20;;;;;;;20.50;17.07;;;10.00;41.80;;;;;;5053646;28;20165;-81
2022/04/16 00:46:47;;;;;;;18.70;16.43;;;9.90;42.30;;;;;;5052369;28;20207;-81
2022/04/16 00:49:13;;;;;;;19.03;16.83;;;9.90;43.30;;;;;;5053145;28;20208;-82
2022/04/16 00:51:42;;;;;;;19.57;17.47;;;9.90;43.70;;;;;;5052789;28;20169;-81
2022/04/16 00:54:08;;;;;;;19.27;17.00;;;10.00;44.50;;;;;;5053790;28;20169;-83
2022/04/16 00:56:33;;;;;;;19.53;16.67;;;9.90;43.30;;;;;;5052241;28;20185;-81
2022/04/16 00:59:01;;;;;;;18.40;16.50;;;9.80;43.40;;;;;;5051940;28;20179;-82
2022/04/16 01:01:26;;;;;;;21.53;17.67;;;9.80;44.60;;;;;;5053334;28;20169;-82
2022/04/16 01:03:52;;;;;;;19.73;17.30;;;9.80;48.30;;;;;;5053042;28;20698;-82
2022/04/16 01:06:18;;;;;;;19.53;17.43;;;9.80;48.50;;;;;;5053116;28;20591;-80
2022/04/16 01:08:45;;;;;;;19.27;17.27;;;9.80;48.60;;;;;;5057135;28;20212;-82
2022/04/16 01:11:14;;;;;;;19.03;16.83;;;9.80;49.70;;;;;;5055256;28;20261;-80
2022/04/16 01:13:41;;;;;;;19.43;16.50;;;9.70;49.30;;;;;;5057085;28;20296;-82
2022/04/16 01:16:07;;;;;;;19.43;16.27;;;9.60;50.50;;;;;;5057669;28;20169;-81
2022/04/16 01:18:33;;;;;;;18.43;16.43;;;9.60;54.00;;;;;;5056090;28;20184;-83
2022/04/16 01:21:01;;;;;;;20.67;17.13;;;9.60;53.20;;;;;;5056483;28;20205;-82
2022/04/16 01:23:28;;;;;;;19.97;16.97;;;9.50;54.20;;;;;;5056944;28;20189;-81
2022/04/16 01:25:55;;;;;;;20.00;16.67;;;9.60;54.90;;;;;;5057043;28;20199;-79
2022/04/16 01:28:21;;;;;;;20.83;18.07;;;9.60;54.30;;;;;;5055498;28;20540;-79
2022/04/16 01:30:47;;;;;;;19.37;16.93;;;9.60;54.60;;;;;;5068142;28;20217;-80
2022/04/16 01:33:13;;;;;;;20.47;16.87;;;9.60;54.60;;;;;;5068142;28;20223;-80
2022/04/16 01:35:38;;;;;;;19.93;16.60;;;9.40;58.90;;;;;;5071201;28;20203;-80
2022/04/16 01:38:06;;;;;;;20.10;17.03;;;9.40;59.40;;;;;;5070675;28;20260;-79
2022/04/16 01:40:34;;;;;;;20.53;17.50;;;9.30;62.60;;;;;;5059365;28;20195;-82
2022/04/16 01:43:00;;;;;;;20.73;17.60;;;9.30;65.00;;;;;;5059047;28;20585;-82
2022/04/16 01:45:41;;;;;;;22.70;18.23;;;9.30;66.20;;;;;;5057407;28;20284;-82
2022/04/16 01:48:07;;;;;;;22.77;17.17;;;9.30;66.30;;;;;;5075234;28;20180;-80
2022/04/16 01:50:32;;;;;;;22.87;18.87;;;9.30;66.20;;;;;;5080720;28;20209;-80
2022/04/16 01:52:58;;;;;;;18.60;16.60;;;9.20;67.10;;;;;;5071859;28;20222;-80
2022/04/16 01:55:24;;;;;;;23.57;18.67;;;9.20;68.90;;;;;;5057083;28;20180;-81
2022/04/16 01:58:05;;;;;;;22.80;19.00;;;9.20;68.70;;;;;;5057939;28;20185;-82
2022/04/16 02:00:31;;;;;;;25.03;19.13;;;9.30;67.00;;;;;;5056239;28;20616;-82
2022/04/16 02:02:57;;;;;;;22.43;17.50;;;9.20;67.30;;;;;;5057065;28;20169;-82
2022/04/16 02:05:23;;;;;;;22.60;18.67;;;9.20;69.10;;;;;;5060600;28;20165;-79
2022/04/16 02:07:50;;;;;;;21.27;18.47;;;9.10;69.60;;;;;;5079079;28;20181;-81
2022/04/16 02:10:16;;;;;;;22.30;18.87;;;9.10;70.20;;;;;;5060644;28;20216;-80
2022/04/16 02:12:42;;;;;;;24.07;18.70;;;9.10;68.80;;;;;;5055508;28;20189;-81
2022/04/16 02:15:09;;;;;;;20.63;17.60;;;9.20;69.40;;;;;;5056108;28;20647;-81
2022/04/16 02:17:38;;;;;;;21.70;19.10;;;9.20;67.40;;;;;;5056257;28;20310;-81
2022/04/16 02:20:08;;;;;;;22.20;18.27;;;9.20;64.70;;;;;;5056806;28;20176;-81
2022/04/16 02:22:40;;;;;;;19.77;16.17;;;9.30;65.10;;;;;;5055509;28;20622;-81
2022/04/16 02:25:09;;;;;;;21.20;18.40;;;9.10;65.30;;;;;;5056509;28;20173;-81
2022/04/16 02:27:35;;;;;;;22.20;18.77;;;9.20;67.10;;;;;;5054731;28;20605;-81
2022/04/16 02:30:09;;;;;;;23.30;19.53;;;9.10;69.40;;;;;;5055944;28;20328;-80
2022/04/16 02:32:43;;;;;;;22.23;18.30;;;9.10;71.40;;;;;;5055498;28;20165;-82
2022/04/16 02:35:10;;;;;;;23.60;18.80;;;9.20;70.10;;;;;;5055985;28;20165;-82
2022/04/16 02:37:36;;;;;;;22.80;19.97;;;9.20;70.80;;;;;;5054337;28;20679;-81
2022/04/16 02:40:05;;;;;;;19.50;17.37;;;9.10;69.70;;;;;;5055472;28;20260;-81
2022/04/16 02:42:36;;;;;;;21.33;17.70;;;9.20;67.50;;;;;;5055345;28;20169;-82
2022/04/16 02:47:50;;;;;;;22.83;19.03;;;9.20;67.40;;;;;;5056011;28;20644;-81
2022/04/16 02:50:15;;;;;;;20.67;17.57;;;9.20;66.90;;;;;;5055570;28;20197;-81
2022/04/16 02:52:41;;;;;;;23.97;19.80;;;9.20;66.00;;;;;;5055454;28;20165;-81
2022/04/16 02:55:08;;;;;;;21.40;19.07;;;9.20;67.20;;;;;;5057087;28;20675;-82
2022/04/16 02:57:34;;;;;;;22.50;18.77;;;9.20;65.40;;;;;;5060860;28;20248;-82
2022/04/16 03:00:00;;;;;;;22.53;19.07;;;9.20;63.10;;;;;;5070981;28;20188;-80
2022/04/16 03:02:26;;;;;;;20.93;17.93;;;9.20;62.60;;;;;;5074335;28;20169;-80
2022/04/16 03:04:52;;;;;;;24.47;19.70;;;9.20;62.70;;;;;;5068975;28;20240;-79
2022/04/16 03:07:17;;;;;;;22.13;18.43;;;9.20;61.80;;;;;;5065314;28;20177;-82
2022/04/16 03:09:44;;;;;;;22.07;19.63;;;9.20;61.60;;;;;;5061205;28;20204;-81
2022/04/16 03:12:12;;;;;;;22.77;18.80;;;9.20;61.50;;;;;;5053663;28;20193;-81
2022/04/16 03:17:31;;;;;;;22.80;18.57;;;9.10;64.20;;;;;;5068361;28;20164;-81
2022/04/16 03:19:57;;;;;;;25.00;19.70;;;9.00;65.10;;;;;;5058774;28;20241;-80
2022/04/16 03:22:23;;;;;;;21.97;18.47;;;9.00;66.20;;;;;;5054676;28;20175;-81
2022/04/16 03:24:49;;;;;;;22.67;19.60;;;9.00;66.00;;;;;;5054773;28;20252;-80
2022/04/16 03:27:16;;;;;;;23.37;19.20;;;9.00;65.90;;;;;;5055253;28;20536;-81
2022/04/16 03:29:41;;;;;;;24.33;20.10;;;8.90;66.00;;;;;;5054030;28;20200;-81
2022/04/16 03:32:07;;;;;;;22.17;18.63;;;8.90;67.10;;;;;;5054297;28;20177;-81
2022/04/16 03:34:33;;;;;;;24.23;19.20;;;8.80;68.80;;;;;;5054415;28;20165;-82
2022/04/16 03:36:59;;;;;;;24.60;20.30;;;8.90;71.50;;;;;;5054498;28;20181;-81
2022/04/16 03:39:25;;;;;;;24.20;19.47;;;8.80;72.90;;;;;;5054297;28;20239;-81
2022/04/16 03:41:51;;;;;;;22.73;19.63;;;8.90;74.60;;;;;;5054387;28;20177;-81
2022/04/16 03:44:17;;;;;;;24.70;20.03;;;8.80;73.50;;;;;;5054209;28;20167;-82
2022/04/16 03:46:42;;;;;;;25.70;21.10;;;8.80;73.60;;;;;;5054870;28;20187;-82
2022/04/16 03:49:08;;;;;;;24.47;19.20;;;8.80;75.30;;;;;;5052853;28;20211;-80
2022/04/16 03:51:34;;;;;;;25.87;20.43;;;8.70;73.60;;;;;;5053330;28;20246;-80
2022/04/16 03:59:59;;;;;;;24.37;19.57;;;8.70;75.60;;;;;;5054719;28;20199;-81
2022/04/16 04:02:13;;;;;;;27.50;21.17;;;8.60;79.90;;;;;;5055486;28;20218;-81
2022/04/16 04:04:39;;;;;;;24.27;21.10;;;8.60;80.60;;;;;;5057795;28;20165;-81
2022/04/16 04:07:05;;;;;;;25.77;19.97;;;8.60;82.10;;;;;;5052603;28;20177;-82
2022/04/16 04:09:31;;;;;;;25.67;22.70;;;8.50;81.30;;;;;;5053888;28;20251;-82
2022/04/16 04:11:57;;;;;;;27.90;22.97;;;8.50;82.70;;;;;;5053707;28;20644;-81
2022/04/16 04:14:23;;;;;;;26.57;21.37;;;8.60;83.10;;;;;;5053928;28;20179;-80
2022/04/16 04:16:48;;;;;;;26.07;22.43;;;8.60;81.80;;;;;;5052855;28;20173;-80
2022/04/16 04:19:14;;;;;;;25.67;21.57;;;8.60;81.80;;;;;;5055338;28;20205;-82
2022/04/16 04:21:39;;;;;;;25.57;20.90;;;8.50;81.60;;;;;;5056270;28;20169;-82
2022/04/16 04:24:05;;;;;;;27.03;21.93;;;8.50;82.10;;;;;;5063771;28;20180;-80
2022/04/16 04:26:32;;;;;;;27.43;22.80;;;8.50;83.00;;;;;;5060679;28;20184;-81
2022/04/16 04:28:58;;;;;;;27.70;22.27;;;8.50;84.40;;;;;;5053681;28;20649;-81
2022/04/16 04:31:24;;;;;;;28.50;23.10;;;8.50;85.00;;;;;;5052514;28;20183;-81
2022/04/16 04:33:49;;;;;;;29.67;23.10;;;8.40;85.60;;;;;;5051828;28;20181;-80
2022/04/16 04:36:15;;;;;;;30.37;24.37;;;8.50;86.30;;;;;;5053224;28;20200;-81
2022/04/16 04:38:41;;;;;;;31.17;24.33;;;8.50;85.70;;;;;;5052161;28;20228;-80
2022/04/16 04:41:07;;;;;;;28.13;23.60;;;8.50;86.80;;;;;;5053168;28;20655;-81
2022/04/16 04:43:33;;;;;;;29.23;24.17;;;8.50;85.20;;;;;;5057107;28;20647;-81
2022/04/16 04:45:58;;;;;;;27.37;23.63;;;8.50;86.10;;;;;;5067837;28;20233;-79
2022/04/16 04:48:24;;;;;;;28.43;24.13;;;8.50;85.50;;;;;;5065014;28;20176;-80
2022/04/16 04:50:50;;;;;;;29.93;23.33;;;8.50;85.10;;;;;;5057437;28;20215;-81
2022/04/16 04:53:15;;;;;;;28.70;23.07;;;8.50;84.20;;;;;;5056341;28;20180;-82
2022/04/16 04:55:41;;;;;;;27.97;22.53;;;8.50;85.00;;;;;;5056029;28;20248;-82
2022/04/16 04:58:07;;;;;;;30.70;25.20;;;8.60;84.10;;;;;;5057392;28;20176;-80
2022/04/16 05:00:32;;;;;;;27.40;23.23;;;8.50;83.20;;;;;;5057454;28;20180;-81
2022/04/16 05:02:58;;;;;;;28.30;23.77;;;8.50;84.50;;;;;;5056988;28;20215;-81
2022/04/16 05:05:24;;;;;;;28.70;23.40;;;8.50;84.10;;;;;;5061457;28;20177;-81
2022/04/16 05:07:50;;;;;;;28.83;24.23;;;8.50;84.70;;;;;;5058124;28;20177;-80
2022/04/16 05:10:16;;;;;;;29.33;24.80;;;8.50;84.80;;;;;;5059182;28;20211;-82
2022/04/16 05:12:42;;;;;;;29.83;23.97;;;8.60;84.00;;;;;;5057321;28;20224;-82
2022/04/16 05:15:08;;;;;;;30.27;24.60;;;8.60;84.20;;;;;;5065477;28;20192;-81
2022/04/16 05:17:37;;;;;;;27.87;22.97;;;8.60;84.30;;;;;;5073629;28;20200;-80
2022/04/16 05:20:07;;;;;;;29.43;23.70;;;8.60;83.50;;;;;;5076556;28;20181;-81
2022/04/16 05:22:33;;;;;;;31.07;25.30;;;8.60;83.60;;;;;;5077851;28;20157;-82
2022/04/16 05:25:01;;;;;;;31.60;25.00;;;8.60;82.80;;;;;;5064913;28;20590;-81
2022/04/16 05:27:34;;;;;;;31.63;25.87;;;8.60;82.60;;;;;;5060021;28;20165;-81
2022/04/16 05:30:07;;;;;;;28.97;23.07;;;8.80;81.40;;;;;;5058003;28;20752;-81
2022/04/16 05:32:42;;;;;;;27.67;23.00;;;8.70;80.70;;;;;;5056884;28;20165;-81
2022/04/16 05:35:10;;;;;;;28.20;23.57;;;8.90;78.70;;;;;;5060245;28;20186;-82
2022/04/16 05:37:36;;;;;;;28.13;23.83;;;8.80;77.70;;;;;;5063884;28;20180;-82
2022/04/16 05:40:03;;;;;;;28.80;24.30;;;8.90;76.50;;;;;;5064354;28;20184;-80
2022/04/16 05:42:29;;;;;;;27.70;23.80;;;8.90;72.90;;;;;;5058906;28;20176;-81
2022/04/16 05:45:01;;;;;;;28.40;24.07;;;8.90;70.70;;;;;;5057606;28;20177;-82
2022/04/16 05:47:27;;;;;;;27.80;23.50;;;8.90;70.20;;;;;;5059023;28;20165;-81
2022/04/16 05:49:54;;;;;;;31.43;24.00;;;9.00;69.30;;;;;;5061262;28;20626;-81
2022/04/16 05:52:22;;;;;;;27.13;24.23;;;9.00;66.60;;;;;;5065598;28;20169;-81
2022/04/16 05:54:48;;;;;;;31.20;24.90;;;9.10;65.30;;;;;;5066943;28;20207;-81
2022/04/16 05:57:16;;;;;;;27.83;23.57;;;9.10;60.20;;;;;;5063440;28;20188;-80
2022/04/16 05:59:43;;;;;;;26.83;23.70;;;9.10;60.40;;;;;;5058770;28;20177;-82
2022/04/16 06:02:10;;;;;;;27.70;22.30;;;9.20;59.30;;;;;;5057605;28;20165;-82
2022/04/16 06:04:36;;;;;;;27.83;23.37;;;9.30;57.40;;;;;;5056569;28;20169;-81
2022/04/16 06:07:02;;;;;;;26.27;22.30;;;9.30;57.40;;;;;;5056844;28;20256;-80
2022/04/16 06:09:28;;;;;;;27.20;24.30;;;9.30;56.70;;;;;;5056657;28;20231;-81
2022/04/16 06:12:06;;;;;;;29.10;23.33;;;9.60;53.60;;;;;;5055136;28;20197;-81
2022/04/16 06:14:32;;;;;;;27.10;22.30;;;9.60;49.70;;;;;;5077841;28;20153;-81
2022/04/16 06:16:58;;;;;;;26.10;23.00;;;9.40;49.20;;;;;;5077810;28;20172;-80
2022/04/16 06:19:26;;;;;;;30.57;23.30;;;9.50;48.60;;;;;;5070028;28;20606;-81
2022/04/16 06:21:53;;;;;;;26.57;22.20;;;9.60;48.20;;;;;;5056699;28;20169;-81
2022/04/16 06:24:19;;;;;;;28.27;22.97;;;9.60;44.60;;;;;;5055746;28;20227;-80
2022/04/16 06:26:47;;;;;;;27.20;23.63;;;9.70;44.50;;;;;;5056241;28;20661;-82
2022/04/16 06:29:14;;;;;;;26.90;23.10;;;9.80;40.20;;;;;;5057152;28;20728;-81
2022/04/16 06:31:40;;;;;;;27.77;23.93;;;9.90;37.30;;;;;;5065511;28;20228;-82
2022/04/16 06:34:06;;;;;;;27.60;23.93;;;10.00;32.80;;;;;;5072932;28;20679;-81
2022/04/16 06:36:31;;;;;;;26.93;22.60;;;10.00;30.50;;;;;;5056768;28;20181;-82
2022/04/16 06:38:58;;;;;;;30.87;26.60;;;10.10;29.00;;;;;;5056365;28;20165;-81
2022/04/16 06:41:25;;;;;;;24.20;20.80;;;10.10;27.00;;;;;;5056515;28;20696;-81
2022/04/16 06:43:51;;;;;;;22.17;19.87;;;10.10;25.30;;;;;;5054228;28;20280;-82
2022/04/16 06:46:16;;;;;;;24.83;21.40;;;10.20;22.60;;;;;;5054965;28;20177;-81
2022/04/16 06:48:42;;;;;;;25.93;22.13;;;10.20;18.90;;;;;;5054336;28;20702;-80
2022/04/16 06:51:08;;;;;;;23.53;21.03;;;10.30;19.40;;;;;;5055889;28;20177;-82
2022/04/16 06:53:33;;;;;;;22.67;20.27;;;10.40;16.70;;;;;;5055817;28;20197;-80
2022/04/16 06:56:00;;;;;;;22.50;20.00;;;10.50;13.20;;;;;;5056547;28;20218;-81
2022/04/16 06:58:28;;;;;;;22.57;20.03;;;10.80;8.80;;;;;;5056899;28;20711;-80
2022/04/16 07:00:55;;;;;;;20.67;17.93;;;10.70;5.50;;;;;;5056618;28;20239;-81
2022/04/16 07:03:21;;;;;;;20.63;18.40;;;10.70;2.50;;;;;;5057282;28;20661;-82
2022/04/16 07:05:47;;;;;;;20.00;17.70;;;10.80;1.00;;;;;;5056822;28;20169;-81
2022/04/16 07:08:13;;;;;;;22.00;17.83;;;10.90;1.00;;;;;;5055307;28;20181;-81
2022/04/16 07:10:39;;;;;;;21.87;18.53;;;10.90;1.00;;;;;;5055652;28;20243;-83
2022/04/16 07:13:05;;;;;;;22.83;18.97;;;11.10;1.00;;;;;;5054926;28;20537;-82
2022/04/16 07:15:33;;;;;;;20.70;17.23;;;11.20;1.00;;;;;;5053993;28;20177;-81
2022/04/16 07:17:59;;;;;;;20.07;16.37;;;11.20;1.00;;;;;;5056656;28;20216;-82
2022/04/16 07:20:24;;;;;;;18.33;16.37;;;11.20;1.00;;;;;;5053612;28;20172;-82
2022/04/16 07:22:50;;;;;;;18.27;16.37;;;11.20;1.00;;;;;;5055347;28;20693;-82
2022/04/16 07:25:16;;;;;;;18.97;16.60;;;11.20;1.00;;;;;;5054850;28;20207;-82
2022/04/16 07:27:43;;;;;;;20.07;17.10;;;11.30;1.00;;;;;;5054359;28;20532;-80
2022/04/16 07:30:12;;;;;;;18.60;15.83;;;11.40;1.00;;;;;;5052150;28;20234;-82
2022/04/16 07:32:38;;;;;;;18.17;16.13;;;11.50;1.00;;;;;;5054503;28;20507;-82
2022/04/16 07:35:05;;;;;;;19.97;15.90;;;11.50;1.00;;;;;;5054591;28;20172;-82
2022/04/16 07:37:30;;;;;;;17.77;15.87;;;11.60;1.00;;;;;;5054851;28;20182;-82
2022/04/16 07:39:56;;;;;;;20.33;16.53;;;11.80;1.00;;;;;;5054590;28;20542;-82
2022/04/16 07:42:26;;;;;;;16.97;15.17;;;11.70;1.00;;;;;;5061680;28;20162;-82
2022/04/16 07:44:53;;;;;;;16.10;14.33;;;11.90;1.00;;;;;;5067099;28;20210;-82
2022/04/16 07:47:29;;;;;;;18.57;15.00;;;11.90;1.00;;;;;;5055036;28;20168;-82
2022/04/16 07:49:55;;;;;;;18.10;15.97;;;12.00;1.00;;;;;;5055414;28;20196;-82
2022/04/16 07:52:22;;;;;;;18.20;15.50;;;12.10;1.00;;;;;;5057558;28;20311;-82
2022/04/16 07:54:48;;;;;;;16.83;15.13;;;12.10;1.00;;;;;;5063558;28;20201;-84
2022/04/16 07:57:15;;;;;;;16.73;14.87;;;12.20;1.00;;;;;;5063822;28;20235;-81
2022/04/16 07:59:40;;;;;;;15.17;13.57;;;12.30;1.00;;;;;;5059528;28;20195;-83
2022/04/16 08:02:06;;;;;;;17.07;14.93;;;12.40;1.00;;;;;;5056987;28;20621;-81
2022/04/16 08:04:33;;;;;;;14.50;13.00;;;12.40;1.00;;;;;;5057086;28;20173;-84
2022/04/16 08:06:59;;;;;;;15.37;13.77;;;12.50;1.00;;;;;;5056288;28;20291;-83
2022/04/16 08:09:25;;;;;;;14.93;13.33;;;12.60;1.00;;;;;;5059370;28;20221;-83
2022/04/16 08:11:51;;;;;;;16.60;13.93;;;12.70;1.00;;;;;;5058672;28;20200;-82
2022/04/16 08:14:16;;;;;;;15.87;13.40;;;12.80;1.00;;;;;;5055475;28;20176;-83
2022/04/16 08:16:43;;;;;;;16.47;13.37;;;12.80;1.00;;;;;;5056446;28;20165;-82
2022/04/16 08:19:09;;;;;;;15.17;13.57;;;12.60;1.00;;;;;;5054009;28;20534;-82
2022/04/16 08:21:38;;;;;;;14.80;13.13;;;12.60;1.00;;;;;;5060996;28;20248;-84
2022/04/16 08:24:12;;;;;;;16.37;14.17;;;12.60;1.00;;;;;;5057600;28;20199;-85
2022/04/16 08:26:39;;;;;;;15.90;13.40;;;12.70;1.00;;;;;;5055476;28;20160;-83
2022/04/16 08:29:05;;;;;;;14.13;12.57;;;12.90;1.00;;;;;;5054068;28;20192;-83
2022/04/16 08:31:30;;;;;;;13.83;12.33;;;13.10;1.00;;;;;;5055472;28;20188;-79
2022/04/16 08:33:56;;;;;;;18.90;12.43;;;13.10;1.00;;;;;;5065471;28;20621;-80
2022/04/16 08:36:23;;;;;;;14.47;12.13;;;13.20;1.00;;;;;;5067424;28;20239;-82
2022/04/16 08:38:48;;;;;;;13.73;12.23;;;13.20;1.00;;;;;;5063395;28;20197;-82
2022/04/16 08:41:14;;;;;;;14.43;12.43;;;13.20;1.00;;;;;;5053734;28;20196;-81
2022/04/16 08:43:42;;;;;;;12.93;10.57;;;13.50;1.00;;;;;;5047543;28;20187;-83
2022/04/16 08:46:08;;;;;;;14.07;11.63;;;13.50;1.00;;;;;;5067358;28;20176;-82
2022/04/16 08:48:35;;;;;;;12.77;11.03;;;13.50;1.00;;;;;;5080923;28;20187;-81
2022/04/16 08:51:01;;;;;;;14.93;11.83;;;13.60;1.00;;;;;;5069851;28;20268;-80
2022/04/16 08:53:27;;;;;;;12.20;10.40;;;13.60;1.00;;;;;;5071128;28;20244;-82
2022/04/16 08:55:53;;;;;;;13.70;10.73;;;13.70;1.00;;;;;;5074079;28;20161;-82
2022/04/16 08:58:18;;;;;;;12.57;11.13;;;13.80;1.00;;;;;;5068721;28;20189;-83
2022/04/16 09:00:44;;;;;;;11.73;10.53;;;13.80;1.00;;;;;;5068388;28;20662;-82
2022/04/16 09:03:11;;;;;;;10.27;8.03;;;13.80;1.00;;;;;;5064871;28;20177;-80
2022/04/16 09:05:45;;;;;;;10.30;8.77;;;14.00;1.00;;;;;;5064113;28;20575;-82
2022/04/16 09:08:16;;;;;;;10.90;8.73;;;14.10;1.00;;;;;;5056445;28;20182;-83
2022/04/16 09:10:46;;;;;;;10.83;8.07;;;14.30;99.90;;;;;;5056806;28;20826;-82
2022/04/16 09:13:12;;;;;;;10.30;8.47;;;14.20;99.90;;;;;;5063425;28;20180;-83
2022/04/16 09:15:38;;;;;;;9.70;8.70;;;14.00;99.90;;;;;;5043108;28;20168;-82
2022/04/16 09:18:07;;;;;;;10.43;8.83;;;14.10;99.90;;;;;;5042285;28;20192;-83
2022/04/16 09:20:38;;;;;;;12.63;9.57;;;14.10;99.90;;;;;;5044677;28;20241;-82
2022/04/16 09:23:17;;;;;;;10.50;9.40;;;14.20;99.90;;;;;;5041892;28;20166;-81
2022/04/16 09:25:47;;;;;;;9.47;7.80;;;14.40;99.90;;;;;;5042127;28;20173;-83
2022/04/16 09:28:21;;;;;;;9.10;7.43;;;14.40;99.90;;;;;;5042780;28;20180;-82
2022/04/16 09:30:55;;;;;;;8.57;7.23;;;14.40;86.60;;;;;;5040645;28;20220;-82
2022/04/16 09:33:21;;;;;;;7.53;5.90;;;14.60;1.00;;;;;;5039095;28;20174;-83
2022/04/16 09:35:47;;;;;;;6.43;5.07;;;14.60;99.90;;;;;;5038925;28;20555;-84
2022/04/16 09:38:16;;;;;;;7.37;5.53;;;14.70;99.90;;;;;;5039037;28;20180;-82
2022/04/16 09:40:46;;;;;;;8.17;5.93;;;14.60;1.00;;;;;;5038927;28;20183;-82
2022/04/16 09:43:15;;;;;;;7.83;6.70;;;14.60;99.90;;;;;;5038586;28;20178;-83
2022/04/16 09:45:42;;;;;;;9.47;6.67;;;15.00;1.00;;;;;;5038709;28;20176;-83
2022/04/16 09:48:12;;;;;;;6.77;5.17;;;15.10;1.00;;;;;;5037895;28;20176;-83
2022/04/16 09:50:41;;;;;;;8.53;6.73;;;15.10;1.00;;;;;;5048665;28;20270;-83
2022/04/16 09:53:08;;;;;;;7.10;5.83;;;14.80;1.00;;;;;;5039419;28;20204;-82
2022/04/16 09:55:36;;;;;;;7.50;6.43;;;14.70;1.00;;;;;;5038956;28;20219;-83
2022/04/16 09:58:04;;;;;;;9.00;7.30;;;14.70;82.90;;;;;;5052888;28;20209;-83
2022/04/16 10:00:31;;;;;;;7.73;6.83;;;14.60;1.00;;;;;;5058607;28;20179;-80
2022/04/16 10:03:04;;;;;;;8.50;7.30;;;14.60;99.90;;;;;;5059499;28;20166;-82
2022/04/16 10:05:29;;;;;;;9.93;6.13;;;14.80;99.90;;;;;;5045119;28;20245;-82
2022/04/16 10:07:57;;;;;;;8.33;6.90;;;15.00;99.90;;;;;;5040602;28;20218;-82
2022/04/16 10:10:30;;;;;;;8.90;7.13;;;15.10;1.00;;;;;;5038740;28;20208;-81
2022/04/16 10:13:08;;;;;;;6.70;5.67;;;15.00;99.90;;;;;;5037554;28;20220;-83
2022/04/16 10:15:46;;;;;;;7.07;5.90;;;15.20;1.00;;;;;;5036526;28;20186;-82
2022/04/16 10:18:12;;;;;;;8.47;6.43;;;15.20;99.90;;;;;;5038071;28;20193;-82
2022/04/16 10:20:49;;;;;;;7.50;5.10;;;15.30;1.00;;;;;;5037766;28;20172;-82
2022/04/16 10:23:28;;;;;;;7.33;5.93;;;15.40;1.00;;;;;;5038709;28;20170;-82
2022/04/16 10:26:05;;;;;;;8.97;5.93;;;15.70;1.00;;;;;;5037146;28;20189;-83
2022/04/16 10:28:54;;;;;;;8.40;7.20;;;15.50;1.00;;;;;;5037673;28;20180;-82
2022/04/16 10:31:25;;;;;;;7.73;6.87;;;15.40;1.00;;;;;;5052688;28;20184;-81
2022/04/16 10:34:08;;;;;;;8.43;6.97;;;15.50;18.40;;;;;;5052490;28;20193;-81
2022/04/16 10:37:00;;;;;;;7.90;6.97;;;15.60;39.70;;;;;;5037468;28;20169;-83
2022/04/16 10:39:28;;;;;;;9.07;7.73;;;15.70;1.00;;;;;;5045013;28;20637;-83
2022/04/16 10:42:00;;;;;;;9.47;8.03;;;15.70;99.90;;;;;;5042025;28;20200;-83
2022/04/16 10:44:27;;;;;;;9.07;7.10;;;15.40;99.90;;;;;;5035917;28;20169;-84
2022/04/16 10:46:54;;;;;;;8.00;6.50;;;15.40;1.00;;;;;;5037883;28;20252;-82
2022/04/16 10:49:27;;;;;;;7.80;5.27;;;15.30;61.40;;;;;;5039014;28;20193;-82
2022/04/16 10:51:55;;;;;;;7.80;6.63;;;15.40;99.90;;;;;;5039893;28;20258;-83
2022/04/16 10:54:32;;;;;;;8.50;7.47;;;15.60;1.00;;;;;;5049872;28;20707;-84
2022/04/16 10:56:58;;;;;;;9.13;6.67;;;15.60;1.00;;;;;;5046628;28;20196;-82
2022/04/16 10:59:38;;;;;;;7.73;5.90;;;15.60;99.90;;;;;;5037325;28;20245;-82
2022/04/16 11:02:25;;;;;;;7.10;6.13;;;15.70;1.00;;;;;;5037824;28;20177;-83
2022/04/16 11:05:02;;;;;;;8.07;6.40;;;15.70;1.00;;;;;;5036688;28;20169;-83
2022/04/16 11:07:30;;;;;;;9.17;6.47;;;15.70;1.00;;;;;;5035424;28;20184;-82
2022/04/16 11:09:56;;;;;;;8.13;6.60;;;15.80;1.00;;;;;;5036185;28;20205;-83
2022/04/16 11:12:23;;;;;;;7.50;5.50;;;16.10;1.00;;;;;;5034669;28;20532;-81
2022/04/16 11:14:51;;;;;;;8.27;6.57;;;16.10;1.00;;;;;;5036028;28;20183;-83
2022/04/16 11:17:19;;;;;;;6.83;5.97;;;16.00;1.00;;;;;;5034261;28;20256;-82
2022/04/16 11:19:47;;;;;;;15.77;6.70;;;15.90;70.60;;;;;;5033946;28;20176;-83
2022/04/16 11:22:13;;;;;;;7.57;5.73;;;16.00;99.90;;;;;;5036762;28;20241;-81
2022/04/16 11:24:39;;;;;;;9.50;6.60;;;16.10;1.00;;;;;;5049162;28;20255;-82
2022/04/16 11:35:25;;;;;;;7.90;7.10;;;16.30;99.90;;;;;;5070310;28;20232;-82
2022/04/16 11:37:55;;;;;;;8.37;6.40;;;16.20;99.90;;;;;;5071671;28;20645;-81
2022/04/16 11:40:20;;;;;;;8.77;6.70;;;16.40;99.90;;;;;;5062697;28;20165;-82
2022/04/16 11:42:46;;;;;;;10.67;6.77;;;16.50;1.00;;;;;;5059196;28;20169;-81
2022/04/16 11:45:17;;;;;;;8.77;6.37;;;16.30;99.90;;;;;;5054739;28;20697;-83
2022/04/16 11:47:43;;;;;;;9.13;6.87;;;16.30;99.90;;;;;;5054092;28;20263;-83
2022/04/16 11:50:10;;;;;;;6.63;5.90;;;16.40;99.90;;;;;;5051306;28;20259;-84
2022/04/16 11:52:37;;;;;;;7.23;6.30;;;16.40;1.00;;;;;;5044550;28;20614;-83
2022/04/16 11:55:18;;;;;;;8.00;6.40;;;16.50;11.30;;;;;;5042036;28;20549;-81
2022/04/16 11:57:49;;;;;;;8.47;6.87;;;16.60;48.40;;;;;;5050180;28;20191;-82
2022/04/16 12:00:18;;;;;;;7.70;6.90;;;16.60;1.00;;;;;;5058375;28;20188;-82
2022/04/16 12:02:47;;;;;;;7.97;6.63;;;16.40;99.90;;;;;;5041741;28;20185;-83
2022/04/16 12:05:15;;;;;;;7.53;6.17;;;16.40;99.90;;;;;;5045951;28;20678;-83
2022/04/16 12:07:42;;;;;;;7.70;6.57;;;16.50;97.70;;;;;;5040684;28;20169;-82
2022/04/16 12:10:15;;;;;;;8.57;6.70;;;16.80;99.90;;;;;;5045320;28;20201;-82
2022/04/16 12:12:47;;;;;;;9.17;7.27;;;16.70;1.00;;;;;;5033507;28;20283;-84
2022/04/16 12:15:22;;;;;;;7.80;7.00;;;16.40;1.00;;;;;;5034428;28;20177;-84
2022/04/16 12:17:49;;;;;;;10.33;7.47;;;16.50;1.00;;;;;;5041845;28;20236;-82
2022/04/16 12:20:15;;;;;;;9.20;6.60;;;16.50;1.00;;;;;;5043879;28;20613;-84
2022/04/16 12:22:49;;;;;;;7.80;6.87;;;16.60;99.90;;;;;;5043841;28;20175;-84
2022/04/16 12:25:24;;;;;;;7.10;6.40;;;16.70;99.90;;;;;;5049611;28;20184;-84
2022/04/16 12:27:52;;;;;;;9.57;7.07;;;16.70;99.90;;;;;;5056263;28;20614;-84
2022/04/16 12:30:25;;;;;;;7.23;6.53;;;16.70;99.90;;;;;;5050403;28;20212;-83
2022/04/16 12:33:05;;;;;;;10.50;7.47;;;16.70;99.90;;;;;;5045503;28;20625;-83
2022/04/16 12:35:35;;;;;;;8.60;7.47;;;17.00;99.90;;;;;;5039284;28;20173;-83
2022/04/16 12:38:02;;;;;;;8.07;6.90;;;17.10;99.90;;;;;;5053354;28;20642;-82
2022/04/16 12:40:29;;;;;;;11.27;7.80;;;17.00;99.90;;;;;;5047119;28;20174;-85
2022/04/16 12:42:57;;;;;;;10.27;8.10;;;17.10;99.90;;;;;;5063283;28;20249;-83
2022/04/16 12:45:24;;;;;;;9.87;7.60;;;17.40;99.90;;;;;;5057878;28;20173;-83
2022/04/16 12:47:55;;;;;;;8.30;6.60;;;17.50;99.90;;;;;;5045711;28;20192;-82
2022/04/16 12:50:21;;;;;;;10.43;8.37;;;17.50;31.10;;;;;;5037388;28;20494;-83
2022/04/16 12:52:47;;;;;;;9.63;8.63;;;17.10;99.90;;;;;;5035925;28;20173;-83
2022/04/16 12:55:14;;;;;;;8.20;7.40;;;17.00;99.90;;;;;;5037851;28;20178;-85
2022/04/16 12:57:42;;;;;;;8.00;7.20;;;16.90;99.90;;;;;;5043511;28;20189;-82
2022/04/16 13:00:09;;;;;;;7.93;6.67;;;16.80;99.90;;;;;;5046470;28;20184;-84
2022/04/16 13:02:38;;;;;;;9.10;7.70;;;16.70;99.90;;;;;;5046174;28;20162;-83